Quentin — WDF2404 — position and weather

sailwx.info

Track history (hours):
 
Tides and Currents Weather Stations Pressure Air Temp Water Temp Dewpoint Dewpoint Depression Visibility Wind Speed Wind Dir Waves Ship Positions

Quentin

Owner: Enterprise Marine Services, LLC, San Antonio, TX. More information available from US FCC via Universal Licensing System and Coast Guard Vessel Documentation Center.

Last reported at 2017-Nov-19 04:10 UTC. Time now 2017-Nov-20 00:28 UTC.
Position N 29°45' W 095°10'.

Length 22 m; draft 2.7 m.

Type: Tug. MMSI: 367003810.

Date/timePositionNaut miles runAvg speedWind from/ knotsBaromVisibWave heightAir tempDewpointWater temp
2017-Nov-19 04:10N 29°45' W 095°10'1 3.8
2017-Nov-19 03:58N 29°44' W 095°09'4 0.1
2017-Nov-17 10:00N 29°46' W 095°05'3 5.5
2017-Nov-17 09:25N 29°44' W 095°02'2 5.4
2017-Nov-17 09:00N 29°42' W 095°00'3 6.8
2017-Nov-17 08:30N 29°39' W 094°58'4 7.1
2017-Nov-17 08:00N 29°36' W 094°57'3 7.2
2017-Nov-17 07:30N 29°33' W 094°54'60 3.6
2017-Nov-16 14:50N 29°58' W 093°52'0 0.0
2017-Nov-16 13:50N 29°58' W 093°52'0 0.0
2017-Nov-16 13:30N 29°58' W 093°52'0 0.0
2017-Nov-16 11:32N 29°58' W 093°52'0 0.0
2017-Nov-16 11:30N 29°58' W 093°52'0 0.0
2017-Nov-16 10:53N 29°58' W 093°52'0 0.0
2017-Nov-16 10:25N 29°58' W 093°52'0 0.0
2017-Nov-16 10:00N 29°58' W 093°52'0 0.0
2017-Nov-16 09:30N 29°58' W 093°52'0 0.0
2017-Nov-16 08:57N 29°58' W 093°52'1 0.4
2017-Nov-16 05:59N 29°59' W 093°53'  
2017-Nov-13 02:00N 29°45' W 095°12'0 0.0
2017-Nov-13 01:30N 29°45' W 095°12'0 0.0
2017-Nov-13 01:00N 29°45' W 095°12'0 0.0
2017-Nov-13 00:30N 29°45' W 095°12'0 0.0
2017-Nov-13 00:00N 29°45' W 095°12'0 0.0
2017-Nov-12 23:30N 29°45' W 095°12'0 0.0
2017-Nov-12 23:00N 29°45' W 095°12'0 0.0
2017-Nov-12 22:30N 29°45' W 095°12'0 0.0
2017-Nov-12 22:00N 29°45' W 095°12'0 0.0
2017-Nov-12 21:30N 29°45' W 095°12'0 0.0
2017-Nov-12 21:00N 29°45' W 095°12'0 0.0
2017-Nov-12 20:30N 29°45' W 095°12'0 0.0
2017-Nov-12 20:00N 29°45' W 095°12'0 0.0
2017-Nov-12 19:30N 29°45' W 095°12'0 0.0
2017-Nov-12 19:00N 29°45' W 095°12'0 0.0
2017-Nov-12 18:30N 29°45' W 095°12'0 0.0
2017-Nov-12 18:00N 29°45' W 095°12'0 0.0
2017-Nov-12 17:30N 29°45' W 095°12'0 0.0
2017-Nov-12 17:00N 29°45' W 095°12'0 0.0
2017-Nov-12 16:30N 29°45' W 095°12'0 0.0
2017-Nov-12 16:00N 29°45' W 095°12'0 0.0
2017-Nov-12 15:30N 29°45' W 095°12'0 0.0
2017-Nov-12 15:00N 29°45' W 095°12'0 0.0
2017-Nov-12 14:30N 29°45' W 095°12'0 0.0
2017-Nov-12 14:00N 29°45' W 095°12'0 0.0
2017-Nov-12 13:30N 29°45' W 095°12'0 0.0
2017-Nov-12 13:00N 29°45' W 095°12'0 0.1
2017-Nov-12 12:30N 29°45' W 095°12'0 0.2
2017-Nov-12 12:00N 29°45' W 095°12'0 0.0
2017-Nov-12 11:30N 29°45' W 095°12'0 0.1
2017-Nov-12 11:00N 29°45' W 095°12'2 3.9
2017-Nov-12 10:30N 29°45' W 095°10'  
2017-Nov-10 06:01N 29°46' W 095°05'1 7.0
2017-Nov-10 05:50N 29°45' W 095°06'2 7.3
2017-Nov-10 05:30N 29°44' W 095°09'3 6.4
2017-Nov-10 04:59N 29°44' W 095°13'1 1.1
2017-Nov-10 04:21N 29°44' W 095°13'0 0.0
2017-Nov-10 01:30N 29°44' W 095°13'0 0.0
2017-Nov-09 13:38N 29°44' W 095°13'0 0.1
2017-Nov-09 12:51N 29°44' W 095°13'2 3.7
2017-Nov-09 12:21N 29°45' W 095°12'2 4.6
2017-Nov-09 12:00N 29°45' W 095°10'  
Track history (hours):
 
Tides and Currents Weather Stations Pressure Air Temp Water Temp Dewpoint Dewpoint Depression Visibility Wind Speed Wind Dir Waves Ship Positions

Quentin

Owner: Enterprise Marine Services, LLC, San Antonio, TX. More information available from US FCC via Universal Licensing System and Coast Guard Vessel Documentation Center.

Last reported at 2017-Nov-19 04:10 UTC. Time now 2017-Nov-20 00:28 UTC.
Position N 29°45' W 095°10'.

Length 22 m; draft 2.7 m.

Type: Tug. MMSI: 367003810.

Date/timePositionNaut miles runAvg speedWind from/ knotsBaromVisibWave heightAir tempDewpointWater temp
2017-Nov-19 04:10N 29°45' W 095°10'1 3.8
2017-Nov-19 03:58N 29°44' W 095°09'4 0.1
2017-Nov-17 10:00N 29°46' W 095°05'3 5.5
2017-Nov-17 09:25N 29°44' W 095°02'2 5.4
2017-Nov-17 09:00N 29°42' W 095°00'3 6.8
2017-Nov-17 08:30N 29°39' W 094°58'4 7.1
2017-Nov-17 08:00N 29°36' W 094°57'3 7.2
2017-Nov-17 07:30N 29°33' W 094°54'60 3.6
2017-Nov-16 14:50N 29°58' W 093°52'0 0.0
2017-Nov-16 13:50N 29°58' W 093°52'0 0.0
2017-Nov-16 13:30N 29°58' W 093°52'0 0.0
2017-Nov-16 11:32N 29°58' W 093°52'0 0.0
2017-Nov-16 11:30N 29°58' W 093°52'0 0.0
2017-Nov-16 10:53N 29°58' W 093°52'0 0.0
2017-Nov-16 10:25N 29°58' W 093°52'0 0.0
2017-Nov-16 10:00N 29°58' W 093°52'0 0.0
2017-Nov-16 09:30N 29°58' W 093°52'0 0.0
2017-Nov-16 08:57N 29°58' W 093°52'1 0.4
2017-Nov-16 05:59N 29°59' W 093°53'  
2017-Nov-13 02:00N 29°45' W 095°12'0 0.0
2017-Nov-13 01:30N 29°45' W 095°12'0 0.0
2017-Nov-13 01:00N 29°45' W 095°12'0 0.0
2017-Nov-13 00:30N 29°45' W 095°12'0 0.0
2017-Nov-13 00:00N 29°45' W 095°12'0 0.0
2017-Nov-12 23:30N 29°45' W 095°12'0 0.0
2017-Nov-12 23:00N 29°45' W 095°12'0 0.0
2017-Nov-12 22:30N 29°45' W 095°12'0 0.0
2017-Nov-12 22:00N 29°45' W 095°12'0 0.0
2017-Nov-12 21:30N 29°45' W 095°12'0 0.0
2017-Nov-12 21:00N 29°45' W 095°12'0 0.0
2017-Nov-12 20:30N 29°45' W 095°12'0 0.0
2017-Nov-12 20:00N 29°45' W 095°12'0 0.0
2017-Nov-12 19:30N 29°45' W 095°12'0 0.0
2017-Nov-12 19:00N 29°45' W 095°12'0 0.0
2017-Nov-12 18:30N 29°45' W 095°12'0 0.0
2017-Nov-12 18:00N 29°45' W 095°12'0 0.0
2017-Nov-12 17:30N 29°45' W 095°12'0 0.0
2017-Nov-12 17:00N 29°45' W 095°12'0 0.0
2017-Nov-12 16:30N 29°45' W 095°12'0 0.0
2017-Nov-12 16:00N 29°45' W 095°12'0 0.0
2017-Nov-12 15:30N 29°45' W 095°12'0 0.0
2017-Nov-12 15:00N 29°45' W 095°12'0 0.0
2017-Nov-12 14:30N 29°45' W 095°12'0 0.0
2017-Nov-12 14:00N 29°45' W 095°12'0 0.0
2017-Nov-12 13:30N 29°45' W 095°12'0 0.0
2017-Nov-12 13:00N 29°45' W 095°12'0 0.1
2017-Nov-12 12:30N 29°45' W 095°12'0 0.2
2017-Nov-12 12:00N 29°45' W 095°12'0 0.0
2017-Nov-12 11:30N 29°45' W 095°12'0 0.1
2017-Nov-12 11:00N 29°45' W 095°12'2 3.9
2017-Nov-12 10:30N 29°45' W 095°10'  
2017-Nov-10 06:01N 29°46' W 095°05'1 7.0
2017-Nov-10 05:50N 29°45' W 095°06'2 7.3
2017-Nov-10 05:30N 29°44' W 095°09'3 6.4
2017-Nov-10 04:59N 29°44' W 095°13'1 1.1
2017-Nov-10 04:21N 29°44' W 095°13'0 0.0
2017-Nov-10 01:30N 29°44' W 095°13'0 0.0
2017-Nov-09 13:38N 29°44' W 095°13'0 0.1
2017-Nov-09 12:51N 29°44' W 095°13'2 3.7
2017-Nov-09 12:21N 29°45' W 095°12'2 4.6
2017-Nov-09 12:00N 29°45' W 095°10'  

Dump ship's entire track history